sensor_id;sensor_type;location;lat;lon;timestamp;pressure;altitude;pressure_sealevel;temperature;humidity
78671;BME280;68277;52.724;6.516;2023-09-30T00:00:56;102399.13;;;11.15;98.42
78671;BME280;68277;52.724;6.516;2023-09-30T00:03:22;102421.22;;;11.28;98.16
78671;BME280;68277;52.724;6.516;2023-09-30T00:05:48;102419.44;;;11.22;98.95
78671;BME280;68277;52.724;6.516;2023-09-30T00:08:13;102424.75;;;11.25;98.31
78671;BME280;68277;52.724;6.516;2023-09-30T00:10:39;102445.03;;;11.35;97.64
78671;BME280;68277;52.724;6.516;2023-09-30T00:13:06;102420.31;;;11.17;97.86
78671;BME280;68277;52.724;6.516;2023-09-30T00:15:32;102425.59;;;11.21;98.06
78671;BME280;68277;52.724;6.516;2023-09-30T00:17:59;102416.78;;;11.15;99.13
78671;BME280;68277;52.724;6.516;2023-09-30T00:20:29;102422.09;;;11.13;99.21
78671;BME280;68277;52.724;6.516;2023-09-30T00:22:55;102422.97;;;11.15;99.08
78671;BME280;68277;52.724;6.516;2023-09-30T00:25:20;102426.53;;;11.19;99.98
78671;BME280;68277;52.724;6.516;2023-09-30T00:27:47;102419.44;;;11.18;99.16
78671;BME280;68277;52.724;6.516;2023-09-30T00:30:13;102396.47;;;11.11;98.98
78671;BME280;68277;52.724;6.516;2023-09-30T00:32:41;102397.38;;;11.11;98.72
78671;BME280;68277;52.724;6.516;2023-09-30T00:35:07;102397.38;;;11.16;99.05
78671;BME280;68277;52.724;6.516;2023-09-30T00:37:40;102395.59;;;11.15;98.44
78671;BME280;68277;52.724;6.516;2023-09-30T00:40:07;102429.16;;;11.28;98.17
78671;BME280;68277;52.724;6.516;2023-09-30T00:42:33;102398.25;;;11.09;99.09
78671;BME280;68277;52.724;6.516;2023-09-30T00:44:58;102385.88;;;11.02;99.80
78671;BME280;68277;52.724;6.516;2023-09-30T00:47:25;102418.56;;;11.17;99.36
78671;BME280;68277;52.724;6.516;2023-09-30T00:49:57;102410.59;;;11.17;100.00
78671;BME280;68277;52.724;6.516;2023-09-30T00:52:22;102415.88;;;11.14;99.98
78671;BME280;68277;52.724;6.516;2023-09-30T00:54:48;102430.03;;;11.18;100.00
78671;BME280;68277;52.724;6.516;2023-09-30T00:57:15;102417.69;;;11.09;100.00
78671;BME280;68277;52.724;6.516;2023-09-30T00:59:41;102390.28;;;10.95;100.00
78671;BME280;68277;52.724;6.516;2023-09-30T01:02:08;102421.19;;;11.10;100.00
78671;BME280;68277;52.724;6.516;2023-09-30T01:04:33;102442.41;;;11.20;99.54
78671;BME280;68277;52.724;6.516;2023-09-30T01:06:59;102404.41;;;10.92;99.62
78671;BME280;68277;52.724;6.516;2023-09-30T01:09:25;102453.00;;;11.22;100.00
78671;BME280;68277;52.724;6.516;2023-09-30T01:11:51;102430.91;;;11.00;100.00
78671;BME280;68277;52.724;6.516;2023-09-30T01:14:24;102459.19;;;11.15;100.00
78671;BME280;68277;52.724;6.516;2023-09-30T01:16:50;102445.91;;;11.12;99.20
78671;BME280;68277;52.724;6.516;2023-09-30T01:19:16;102443.28;;;11.10;100.00
78671;BME280;68277;52.724;6.516;2023-09-30T01:21:41;102420.31;;;10.97;99.45
78671;BME280;68277;52.724;6.516;2023-09-30T01:24:07;102456.50;;;11.07;98.92
78671;BME280;68277;52.724;6.516;2023-09-30T01:26:34;102440.63;;;10.99;99.33
78671;BME280;68277;52.724;6.516;2023-09-30T01:28:59;102435.34;;;10.99;99.67
78671;BME280;68277;52.724;6.516;2023-09-30T01:31:25;102430.91;;;10.92;99.90
78671;BME280;68277;52.724;6.516;2023-09-30T01:33:53;102460.94;;;11.08;99.49
78671;BME280;68277;52.724;6.516;2023-09-30T01:36:19;102456.50;;;11.12;99.67
78671;BME280;68277;52.724;6.516;2023-09-30T01:38:45;102430.88;;;10.95;99.47
78671;BME280;68277;52.724;6.516;2023-09-30T01:41:11;102442.41;;;11.04;98.99
78671;BME280;68277;52.724;6.516;2023-09-30T01:43:36;102445.06;;;11.11;99.27
78671;BME280;68277;52.724;6.516;2023-09-30T01:46:03;102441.50;;;11.11;99.67
78671;BME280;68277;52.724;6.516;2023-09-30T01:48:30;102419.44;;;10.96;99.16
78671;BME280;68277;52.724;6.516;2023-09-30T01:50:56;102421.19;;;10.96;99.61
78671;BME280;68277;52.724;6.516;2023-09-30T01:53:24;102452.09;;;11.17;99.71
78671;BME280;68277;52.724;6.516;2023-09-30T01:55:51;102439.75;;;11.11;100.00
78671;BME280;68277;52.724;6.516;2023-09-30T01:58:16;102445.06;;;11.16;100.00
78671;BME280;68277;52.724;6.516;2023-09-30T02:00:43;102407.94;;;10.87;99.69
78671;BME280;68277;52.724;6.516;2023-09-30T02:03:10;102460.97;;;11.16;99.52
78671;BME280;68277;52.724;6.516;2023-09-30T02:05:38;102405.28;;;10.78;99.58
78671;BME280;68277;52.724;6.516;2023-09-30T02:08:04;102421.16;;;10.88;99.94
78671;BME280;68277;52.724;6.516;2023-09-30T02:10:32;102430.00;;;10.89;100.00
78671;BME280;68277;52.724;6.516;2023-09-30T02:12:58;102446.78;;;11.00;99.45
78671;BME280;68277;52.724;6.516;2023-09-30T02:15:25;102444.16;;;11.02;100.00
78671;BME280;68277;52.724;6.516;2023-09-30T02:17:51;102430.91;;;10.94;99.49
78671;BME280;68277;52.724;6.516;2023-09-30T02:20:17;102469.81;;;11.16;99.31
78671;BME280;68277;52.724;6.516;2023-09-30T02:22:45;102451.22;;;11.12;100.00
78671;BME280;68277;52.724;6.516;2023-09-30T02:25:12;102457.41;;;11.15;100.00
78671;BME280;68277;52.724;6.516;2023-09-30T02:27:39;102448.56;;;11.10;100.00
78671;BME280;68277;52.724;6.516;2023-09-30T02:30:08;102407.06;;;10.85;99.58
78671;BME280;68277;52.724;6.516;2023-09-30T02:32:33;102460.06;;;11.17;100.00
78671;BME280;68277;52.724;6.516;2023-09-30T02:34:59;102437.09;;;11.07;100.00
78671;BME280;68277;52.724;6.516;2023-09-30T02:37:24;102428.25;;;10.97;99.63
78671;BME280;68277;52.724;6.516;2023-09-30T02:39:50;102431.78;;;11.00;98.94
78671;BME280;68277;52.724;6.516;2023-09-30T02:42:16;102426.47;;;11.00;99.50
78671;BME280;68277;52.724;6.516;2023-09-30T02:44:41;102432.69;;;11.01;99.58
78671;BME280;68277;52.724;6.516;2023-09-30T02:47:08;102446.81;;;11.09;99.33
78671;BME280;68277;52.724;6.516;2023-09-30T02:49:35;102421.19;;;10.97;99.65
78671;BME280;68277;52.724;6.516;2023-09-30T02:52:00;102430.03;;;10.99;99.65
78671;BME280;68277;52.724;6.516;2023-09-30T02:54:26;102431.78;;;10.97;99.51
78671;BME280;68277;52.724;6.516;2023-09-30T02:56:52;102437.09;;;10.99;99.01
78671;BME280;68277;52.724;6.516;2023-09-30T02:59:20;102462.72;;;11.09;100.00
78671;BME280;68277;52.724;6.516;2023-09-30T03:01:49;102440.59;;;10.93;100.00
78671;BME280;68277;52.724;6.516;2023-09-30T03:04:15;102442.38;;;10.91;100.00
78671;BME280;68277;52.724;6.516;2023-09-30T03:06:44;102449.44;;;10.91;100.00
78671;BME280;68277;52.724;6.516;2023-09-30T03:09:10;102460.06;;;11.03;99.60
78671;BME280;68277;52.724;6.516;2023-09-30T03:11:37;102447.66;;;10.88;99.98
78671;BME280;68277;52.724;6.516;2023-09-30T03:14:03;102452.97;;;10.90;100.00
78671;BME280;68277;52.724;6.516;2023-09-30T03:16:29;102423.81;;;10.78;100.00
78671;BME280;68277;52.724;6.516;2023-09-30T03:18:56;102412.34;;;10.71;100.00
78671;BME280;68277;52.724;6.516;2023-09-30T03:21:21;102418.50;;;10.75;100.00
78671;BME280;68277;52.724;6.516;2023-09-30T03:23:48;102421.13;;;10.72;100.00
78671;BME280;68277;52.724;6.516;2023-09-30T03:26:13;102458.25;;;10.88;100.00
78671;BME280;68277;52.724;6.516;2023-09-30T03:28:39;102473.25;;;10.91;100.00
78671;BME280;68277;52.724;6.516;2023-09-30T03:31:05;102469.72;;;10.90;99.87
78671;BME280;68277;52.724;6.516;2023-09-30T03:33:35;102457.34;;;10.82;100.00
78671;BME280;68277;52.724;6.516;2023-09-30T03:36:00;102438.78;;;10.68;100.00
78671;BME280;68277;52.724;6.516;2023-09-30T03:38:26;102460.91;;;10.82;100.00
78671;BME280;68277;52.724;6.516;2023-09-30T03:40:52;102467.06;;;10.80;100.00
78671;BME280;68277;52.724;6.516;2023-09-30T03:43:20;102460.00;;;10.80;100.00
78671;BME280;68277;52.724;6.516;2023-09-30T03:45:46;102459.09;;;10.77;100.00
78671;BME280;68277;52.724;6.516;2023-09-30T03:48:12;102464.41;;;10.81;100.00
78671;BME280;68277;52.724;6.516;2023-09-30T03:50:37;102462.66;;;10.83;100.00
78671;BME280;68277;52.724;6.516;2023-09-30T03:53:04;102466.19;;;10.82;100.00
78671;BME280;68277;52.724;6.516;2023-09-30T03:55:30;102440.53;;;10.69;100.00
78671;BME280;68277;52.724;6.516;2023-09-30T03:57:57;102466.22;;;10.81;100.00
78671;BME280;68277;52.724;6.516;2023-09-30T04:00:22;102436.09;;;10.62;100.00
78671;BME280;68277;52.724;6.516;2023-09-30T04:02:50;102421.97;;;10.56;100.00
78671;BME280;68277;52.724;6.516;2023-09-30T04:05:20;102457.34;;;10.76;100.00
78671;BME280;68277;52.724;6.516;2023-09-30T04:07:49;102427.31;;;10.63;100.00
78671;BME280;68277;52.724;6.516;2023-09-30T04:10:15;102438.78;;;10.64;100.00
78671;BME280;68277;52.724;6.516;2023-09-30T04:12:41;102429.94;;;10.60;100.00
78671;BME280;68277;52.724;6.516;2023-09-30T04:15:06;102435.25;;;10.63;100.00
78671;BME280;68277;52.724;6.516;2023-09-30T04:17:32;102425.53;;;10.61;100.00
78671;BME280;68277;52.724;6.516;2023-09-30T04:19:58;102407.88;;;10.52;100.00
78671;BME280;68277;52.724;6.516;2023-09-30T04:22:25;102425.53;;;10.62;100.00
78671;BME280;68277;52.724;6.516;2023-09-30T04:24:51;102429.06;;;10.67;100.00
78671;BME280;68277;52.724;6.516;2023-09-30T04:27:17;102422.91;;;10.68;100.00
78671;BME280;68277;52.724;6.516;2023-09-30T04:29:43;102441.47;;;10.83;100.00
78671;BME280;68277;52.724;6.516;2023-09-30T04:32:09;102405.22;;;10.58;100.00
78671;BME280;68277;52.724;6.516;2023-09-30T04:34:35;102437.03;;;10.73;100.00
78671;BME280;68277;52.724;6.516;2023-09-30T04:37:00;102431.75;;;10.69;100.00
78671;BME280;68277;52.724;6.516;2023-09-30T04:39:27;102463.53;;;10.84;100.00
78671;BME280;68277;52.724;6.516;2023-09-30T04:41:52;102441.44;;;10.70;100.00
78671;BME280;68277;52.724;6.516;2023-09-30T04:44:18;102452.06;;;10.71;100.00
78671;BME280;68277;52.724;6.516;2023-09-30T04:46:44;102460.88;;;10.73;100.00
78671;BME280;68277;52.724;6.516;2023-09-30T04:49:14;102473.25;;;10.77;100.00
78671;BME280;68277;52.724;6.516;2023-09-30T04:51:39;102479.41;;;10.79;100.00
78671;BME280;68277;52.724;6.516;2023-09-30T04:54:05;102465.28;;;10.67;100.00
78671;BME280;68277;52.724;6.516;2023-09-30T04:56:34;102477.63;;;10.72;100.00
78671;BME280;68277;52.724;6.516;2023-09-30T04:59:00;102487.38;;;10.81;100.00
78671;BME280;68277;52.724;6.516;2023-09-30T05:01:26;102483.84;;;10.76;100.00
78671;BME280;68277;52.724;6.516;2023-09-30T05:03:53;102471.44;;;10.64;100.00
78671;BME280;68277;52.724;6.516;2023-09-30T05:06:19;102467.88;;;10.61;100.00
78671;BME280;68277;52.724;6.516;2023-09-30T05:08:44;102455.50;;;10.55;100.00
78671;BME280;68277;52.724;6.516;2023-09-30T05:11:10;102470.53;;;10.58;100.00
78671;BME280;68277;52.724;6.516;2023-09-30T05:13:35;102482.88;;;10.60;100.00
78671;BME280;68277;52.724;6.516;2023-09-30T05:16:02;102492.59;;;10.63;100.00
78671;BME280;68277;52.724;6.516;2023-09-30T05:18:28;102505.00;;;10.68;100.00
78671;BME280;68277;52.724;6.516;2023-09-30T05:20:55;102501.44;;;10.63;100.00
78671;BME280;68277;52.724;6.516;2023-09-30T05:23:20;102480.22;;;10.50;100.00
78671;BME280;68277;52.724;6.516;2023-09-30T05:25:46;102480.19;;;10.48;100.00
78671;BME280;68277;52.724;6.516;2023-09-30T05:28:11;102474.88;;;10.42;100.00
78671;BME280;68277;52.724;6.516;2023-09-30T05:30:39;102509.34;;;10.60;100.00
78671;BME280;68277;52.724;6.516;2023-09-30T05:33:06;102509.38;;;10.57;100.00
78671;BME280;68277;52.724;6.516;2023-09-30T05:35:31;102479.28;;;10.36;100.00
78671;BME280;68277;52.724;6.516;2023-09-30T05:37:57;102506.66;;;10.48;100.00
78671;BME280;68277;52.724;6.516;2023-09-30T05:40:23;102475.72;;;10.29;100.00
78671;BME280;68277;52.724;6.516;2023-09-30T05:42:56;102479.22;;;10.29;100.00
78671;BME280;68277;52.724;6.516;2023-09-30T05:45:23;102502.22;;;10.44;100.00
78671;BME280;68277;52.724;6.516;2023-09-30T05:47:50;102503.16;;;10.48;100.00
78671;BME280;68277;52.724;6.516;2023-09-30T05:50:18;102499.59;;;10.49;100.00
78671;BME280;68277;52.724;6.516;2023-09-30T05:52:49;102517.31;;;10.57;100.00
78671;BME280;68277;52.724;6.516;2023-09-30T05:55:16;102533.22;;;10.68;100.00
78671;BME280;68277;52.724;6.516;2023-09-30T05:57:41;102508.50;;;10.60;100.00
78671;BME280;68277;52.724;6.516;2023-09-30T06:00:13;102505.84;;;10.61;100.00
78671;BME280;68277;52.724;6.516;2023-09-30T06:02:48;102512.03;;;10.69;100.00
78671;BME280;68277;52.724;6.516;2023-09-30T06:05:15;102505.88;;;10.70;100.00
78671;BME280;68277;52.724;6.516;2023-09-30T06:07:46;102513.84;;;10.78;100.00
78671;BME280;68277;52.724;6.516;2023-09-30T06:10:12;102514.78;;;10.96;100.00
78671;BME280;68277;52.724;6.516;2023-09-30T06:12:41;102491.00;;;11.34;99.60
78671;BME280;68277;52.724;6.516;2023-09-30T06:15:09;102479.53;;;11.68;98.27
78671;BME280;68277;52.724;6.516;2023-09-30T06:17:35;102505.16;;;12.06;97.09
78671;BME280;68277;52.724;6.516;2023-09-30T06:20:04;102522.66;;;12.69;95.34
78671;BME280;68277;52.724;6.516;2023-09-30T06:22:34;102495.78;;;13.25;92.63
78671;BME280;68277;52.724;6.516;2023-09-30T06:24:59;102513.88;;;13.88;89.87
78671;BME280;68277;52.724;6.516;2023-09-30T06:27:25;102515.19;;;14.34;88.04
78671;BME280;68277;52.724;6.516;2023-09-30T06:29:51;102520.88;;;14.77;86.29
78671;BME280;68277;52.724;6.516;2023-09-30T06:32:16;102485.50;;;14.66;85.65
78671;BME280;68277;52.724;6.516;2023-09-30T06:34:42;102513.78;;;14.78;86.78
78671;BME280;68277;52.724;6.516;2023-09-30T06:37:08;102512.19;;;14.65;87.60
78671;BME280;68277;52.724;6.516;2023-09-30T06:39:33;102510.91;;;14.17;90.58
78671;BME280;68277;52.724;6.516;2023-09-30T06:41:59;102540.44;;;13.90;93.18
78671;BME280;68277;52.724;6.516;2023-09-30T06:44:24;102554.16;;;13.38;95.38
78671;BME280;68277;52.724;6.516;2023-09-30T06:46:50;102518.09;;;12.86;97.03
78671;BME280;68277;52.724;6.516;2023-09-30T06:49:16;102491.66;;;12.60;98.57
78671;BME280;68277;52.724;6.516;2023-09-30T06:51:42;102543.63;;;13.22;98.78
78671;BME280;68277;52.724;6.516;2023-09-30T06:54:07;102560.09;;;13.77;97.48
78671;BME280;68277;52.724;6.516;2023-09-30T06:56:33;102523.53;;;13.98;97.96
78671;BME280;68277;52.724;6.516;2023-09-30T06:58:58;102544.94;;;14.73;96.63
78671;BME280;68277;52.724;6.516;2023-09-30T07:01:24;102527.34;;;15.24;93.71
78671;BME280;68277;52.724;6.516;2023-09-30T07:03:50;102514.41;;;15.56;93.53
78671;BME280;68277;52.724;6.516;2023-09-30T07:06:26;102546.63;;;15.99;92.35
78671;BME280;68277;52.724;6.516;2023-09-30T07:08:53;102535.72;;;16.11;92.85
78671;BME280;68277;52.724;6.516;2023-09-30T07:11:31;102524.72;;;16.26;91.11
78671;BME280;68277;52.724;6.516;2023-09-30T07:13:59;102546.63;;;16.90;92.09
78671;BME280;68277;52.724;6.516;2023-09-30T07:16:25;102530.13;;;17.84;87.74
78671;BME280;68277;52.724;6.516;2023-09-30T07:18:51;102547.53;;;17.67;87.63
78671;BME280;68277;52.724;6.516;2023-09-30T07:21:16;102539.81;;;17.16;89.12
78671;BME280;68277;52.724;6.516;2023-09-30T07:23:42;102551.16;;;16.39;91.36
78671;BME280;68277;52.724;6.516;2023-09-30T07:26:08;102570.19;;;16.23;91.51
78671;BME280;68277;52.724;6.516;2023-09-30T07:28:33;102577.88;;;16.87;89.10
78671;BME280;68277;52.724;6.516;2023-09-30T07:30:59;102584.84;;;16.95;88.93
78671;BME280;68277;52.724;6.516;2023-09-30T07:33:24;102565.66;;;17.15;87.44
78671;BME280;68277;52.724;6.516;2023-09-30T07:35:50;102570.47;;;17.39;86.55
78671;BME280;68277;52.724;6.516;2023-09-30T07:38:16;102546.13;;;17.51;85.22
78671;BME280;68277;52.724;6.516;2023-09-30T07:40:41;102553.06;;;17.95;83.92
78671;BME280;68277;52.724;6.516;2023-09-30T07:43:10;102579.44;;;19.07;78.57
78671;BME280;68277;52.724;6.516;2023-09-30T07:45:37;102551.81;;;19.60;75.59
78671;BME280;68277;52.724;6.516;2023-09-30T07:48:03;102569.19;;;19.20;77.18
78671;BME280;68277;52.724;6.516;2023-09-30T07:50:30;102604.03;;;18.92;78.72
78671;BME280;68277;52.724;6.516;2023-09-30T07:52:56;102606.81;;;18.57;80.58
78671;BME280;68277;52.724;6.516;2023-09-30T07:55:24;102580.13;;;17.85;83.57
78671;BME280;68277;52.724;6.516;2023-09-30T07:57:49;102589.84;;;17.12;87.39
78671;BME280;68277;52.724;6.516;2023-09-30T08:00:15;102605.13;;;16.61;88.98
78671;BME280;68277;52.724;6.516;2023-09-30T08:02:41;102579.38;;;16.08;91.16
78671;BME280;68277;52.724;6.516;2023-09-30T08:05:07;102623.53;;;16.27;90.84
78671;BME280;68277;52.724;6.516;2023-09-30T08:07:35;102567.41;;;15.80;91.61
78671;BME280;68277;52.724;6.516;2023-09-30T08:10:04;102578.34;;;16.17;90.98
78671;BME280;68277;52.724;6.516;2023-09-30T08:12:32;102587.97;;;16.25;90.94
78671;BME280;68277;52.724;6.516;2023-09-30T08:14:57;102578.88;;;15.85;91.26
78671;BME280;68277;52.724;6.516;2023-09-30T08:17:23;102595.81;;;15.84;91.98
78671;BME280;68277;52.724;6.516;2023-09-30T08:19:48;102597.72;;;15.76;91.52
78671;BME280;68277;52.724;6.516;2023-09-30T08:22:14;102605.69;;;15.79;91.98
78671;BME280;68277;52.724;6.516;2023-09-30T08:24:39;102621.50;;;15.91;91.42
78671;BME280;68277;52.724;6.516;2023-09-30T08:27:05;102607.34;;;15.86;90.77
78671;BME280;68277;52.724;6.516;2023-09-30T08:29:34;102617.69;;;17.02;87.89
78671;BME280;68277;52.724;6.516;2023-09-30T08:32:02;102595.28;;;18.55;81.47
78671;BME280;68277;52.724;6.516;2023-09-30T08:34:28;102588.69;;;19.83;77.25
78671;BME280;68277;52.724;6.516;2023-09-30T08:36:54;102622.31;;;20.21;76.56
78671;BME280;68277;52.724;6.516;2023-09-30T08:39:19;102608.72;;;19.73;78.11
78671;BME280;68277;52.724;6.516;2023-09-30T08:41:45;102588.25;;;19.12;80.41
78671;BME280;68277;52.724;6.516;2023-09-30T08:44:11;102622.13;;;18.53;83.96
78671;BME280;68277;52.724;6.516;2023-09-30T08:46:38;102612.03;;;17.94;86.04
78671;BME280;68277;52.724;6.516;2023-09-30T08:49:04;102610.00;;;18.03;79.83
78671;BME280;68277;52.724;6.516;2023-09-30T08:51:31;102603.72;;;18.38;85.59
78671;BME280;68277;52.724;6.516;2023-09-30T08:53:58;102601.19;;;18.66;85.44
78671;BME280;68277;52.724;6.516;2023-09-30T08:56:28;102579.63;;;18.70;83.11
78671;BME280;68277;52.724;6.516;2023-09-30T08:59:02;102588.63;;;20.86;73.86
78671;BME280;68277;52.724;6.516;2023-09-30T09:01:30;102595.19;;;22.34;68.48
78671;BME280;68277;52.724;6.516;2023-09-30T09:03:57;102579.28;;;22.48;68.94
78671;BME280;68277;52.724;6.516;2023-09-30T09:06:33;102557.97;;;23.20;66.94
78671;BME280;68277;52.724;6.516;2023-09-30T09:09:16;102598.22;;;22.26;67.17
78671;BME280;68277;52.724;6.516;2023-09-30T09:11:46;102590.97;;;21.42;75.86
78671;BME280;68277;52.724;6.516;2023-09-30T09:14:12;102584.34;;;21.04;79.13
78671;BME280;68277;52.724;6.516;2023-09-30T09:16:50;102588.16;;;20.51;79.34
78671;BME280;68277;52.724;6.516;2023-09-30T09:19:18;102571.56;;;20.63;82.58
78671;BME280;68277;52.724;6.516;2023-09-30T09:21:57;102578.50;;;21.61;74.53
78671;BME280;68277;52.724;6.516;2023-09-30T09:24:30;102590.88;;;22.30;76.32
78671;BME280;68277;52.724;6.516;2023-09-30T09:27:09;102609.03;;;23.63;65.75
78671;BME280;68277;52.724;6.516;2023-09-30T09:29:36;102580.09;;;24.69;68.84
78671;BME280;68277;52.724;6.516;2023-09-30T09:32:16;102623.31;;;25.05;67.08
78671;BME280;68277;52.724;6.516;2023-09-30T09:34:43;102608.59;;;24.59;70.22
78671;BME280;68277;52.724;6.516;2023-09-30T09:37:20;102615.63;;;24.63;66.05
78671;BME280;68277;52.724;6.516;2023-09-30T09:39:56;102640.03;;;25.29;65.22
78671;BME280;68277;52.724;6.516;2023-09-30T09:42:30;102626.44;;;25.93;61.88
78671;BME280;68277;52.724;6.516;2023-09-30T09:45:00;102609.38;;;25.75;66.06
78671;BME280;68277;52.724;6.516;2023-09-30T09:47:26;102600.53;;;25.87;67.16
78671;BME280;68277;52.724;6.516;2023-09-30T09:49:52;102628.72;;;26.16;66.73
78671;BME280;68277;52.724;6.516;2023-09-30T09:52:20;102541.88;;;25.55;65.07
78671;BME280;68277;52.724;6.516;2023-09-30T09:54:46;102608.63;;;25.09;70.92
78671;BME280;68277;52.724;6.516;2023-09-30T09:57:12;102613.25;;;24.40;73.14
78671;BME280;68277;52.724;6.516;2023-09-30T09:59:43;102597.78;;;23.53;75.83
78671;BME280;68277;52.724;6.516;2023-09-30T10:02:11;102578.81;;;22.79;78.61
78671;BME280;68277;52.724;6.516;2023-09-30T10:04:41;102596.88;;;22.57;78.96
78671;BME280;68277;52.724;6.516;2023-09-30T10:07:11;102596.72;;;22.19;79.46
78671;BME280;68277;52.724;6.516;2023-09-30T10:09:43;102602.41;;;22.13;78.21
78671;BME280;68277;52.724;6.516;2023-09-30T10:12:12;102580.03;;;21.90;79.02
78671;BME280;68277;52.724;6.516;2023-09-30T10:14:38;102574.94;;;22.04;76.59
78671;BME280;68277;52.724;6.516;2023-09-30T10:17:04;102561.66;;;21.99;75.94
78671;BME280;68277;52.724;6.516;2023-09-30T10:19:30;102632.53;;;22.65;73.07
78671;BME280;68277;52.724;6.516;2023-09-30T10:24:41;102592.56;;;22.93;71.70
78671;BME280;68277;52.724;6.516;2023-09-30T10:35:18;102643.03;;;22.51;67.67
78671;BME280;68277;52.724;6.516;2023-09-30T10:37:45;102639.56;;;22.47;74.39
78671;BME280;68277;52.724;6.516;2023-09-30T10:40:27;102636.06;;;22.45;68.46
78671;BME280;68277;52.724;6.516;2023-09-30T10:42:52;102614.69;;;22.20;74.62
78671;BME280;68277;52.724;6.516;2023-09-30T10:50:56;102639.34;;;21.45;71.68
78671;BME280;68277;52.724;6.516;2023-09-30T10:53:22;102628.22;;;21.31;76.15
78671;BME280;68277;52.724;6.516;2023-09-30T10:55:56;102623.91;;;21.27;75.53
78671;BME280;68277;52.724;6.516;2023-09-30T10:58:21;102601.03;;;20.66;73.41
78671;BME280;68277;52.724;6.516;2023-09-30T11:00:53;102624.47;;;20.37;71.06
78671;BME280;68277;52.724;6.516;2023-09-30T11:03:20;102618.56;;;20.00;73.42
78671;BME280;68277;52.724;6.516;2023-09-30T11:05:50;102598.19;;;20.19;72.86
78671;BME280;68277;52.724;6.516;2023-09-30T11:08:21;102601.94;;;20.14;72.19
78671;BME280;68277;52.724;6.516;2023-09-30T11:10:52;102623.19;;;20.21;72.46
78671;BME280;68277;52.724;6.516;2023-09-30T11:13:19;102611.56;;;20.21;71.24
78671;BME280;68277;52.724;6.516;2023-09-30T11:15:45;102588.81;;;20.05;70.77
78671;BME280;68277;52.724;6.516;2023-09-30T11:18:15;102556.63;;;19.77;69.76
78671;BME280;68277;52.724;6.516;2023-09-30T11:20:42;102593.63;;;20.21;69.30
78671;BME280;68277;52.724;6.516;2023-09-30T11:23:08;102586.19;;;20.56;67.60
78671;BME280;68277;52.724;6.516;2023-09-30T11:25:38;102619.16;;;21.10;67.68
78671;BME280;68277;52.724;6.516;2023-09-30T11:28:17;102594.09;;;21.31;64.52
78671;BME280;68277;52.724;6.516;2023-09-30T11:31:00;102601.66;;;21.43;58.86
78671;BME280;68277;52.724;6.516;2023-09-30T11:33:28;102595.81;;;20.86;67.38
78671;BME280;68277;52.724;6.516;2023-09-30T11:36:06;102601.44;;;20.55;62.90
78671;BME280;68277;52.724;6.516;2023-09-30T11:38:34;102577.13;;;20.58;67.20
78671;BME280;68277;52.724;6.516;2023-09-30T11:41:04;102602.81;;;20.90;61.04
78671;BME280;68277;52.724;6.516;2023-09-30T11:43:31;102577.88;;;20.85;64.93
78671;BME280;68277;52.724;6.516;2023-09-30T11:46:11;102563.56;;;20.36;65.67
78671;BME280;68277;52.724;6.516;2023-09-30T11:48:55;102572.53;;;20.09;66.47
78671;BME280;68277;52.724;6.516;2023-09-30T11:51:24;102605.53;;;20.40;65.51
78671;BME280;68277;52.724;6.516;2023-09-30T11:53:50;102609.09;;;20.15;65.75
78671;BME280;68277;52.724;6.516;2023-09-30T11:56:24;102583.81;;;19.68;66.33
78671;BME280;68277;52.724;6.516;2023-09-30T11:58:55;102579.13;;;19.47;66.08
78671;BME280;68277;52.724;6.516;2023-09-30T12:01:21;102596.97;;;19.48;67.10
78671;BME280;68277;52.724;6.516;2023-09-30T12:03:50;102601.78;;;19.66;67.00
78671;BME280;68277;52.724;6.516;2023-09-30T12:06:18;102597.34;;;19.91;66.29
78671;BME280;68277;52.724;6.516;2023-09-30T12:08:43;102595.34;;;20.25;64.15
78671;BME280;68277;52.724;6.516;2023-09-30T12:11:08;102601.34;;;20.58;64.30
78671;BME280;68277;52.724;6.516;2023-09-30T12:13:38;102594.47;;;20.97;63.14
78671;BME280;68277;52.724;6.516;2023-09-30T12:16:04;102577.53;;;21.19;62.67
78671;BME280;68277;52.724;6.516;2023-09-30T12:18:30;102586.34;;;21.45;62.57
78671;BME280;68277;52.724;6.516;2023-09-30T12:20:55;102576.13;;;21.53;61.74
78671;BME280;68277;52.724;6.516;2023-09-30T12:23:21;102563.91;;;21.45;60.65
78671;BME280;68277;52.724;6.516;2023-09-30T12:25:47;102587.22;;;21.67;60.51
78671;BME280;68277;52.724;6.516;2023-09-30T12:28:13;102587.72;;;21.55;60.96
78671;BME280;68277;52.724;6.516;2023-09-30T12:30:40;102596.44;;;21.17;62.21
78671;BME280;68277;52.724;6.516;2023-09-30T12:33:07;102588.69;;;21.08;62.61
78671;BME280;68277;52.724;6.516;2023-09-30T12:35:33;102580.06;;;21.45;62.17
78671;BME280;68277;52.724;6.516;2023-09-30T12:37:59;102587.94;;;21.94;61.02
78671;BME280;68277;52.724;6.516;2023-09-30T12:40:26;102573.75;;;22.11;60.42
78671;BME280;68277;52.724;6.516;2023-09-30T12:42:52;102562.69;;;22.17;60.85
78671;BME280;68277;52.724;6.516;2023-09-30T12:45:21;102534.63;;;21.79;60.21
78671;BME280;68277;52.724;6.516;2023-09-30T12:47:46;102530.00;;;21.61;61.29
78671;BME280;68277;52.724;6.516;2023-09-30T12:50:13;102537.72;;;21.92;58.39
78671;BME280;68277;52.724;6.516;2023-09-30T12:52:39;102546.09;;;22.26;59.73
78671;BME280;68277;52.724;6.516;2023-09-30T12:55:05;102548.75;;;22.27;59.90
78671;BME280;68277;52.724;6.516;2023-09-30T12:57:32;102531.03;;;22.40;59.51
78671;BME280;68277;52.724;6.516;2023-09-30T12:59:57;102519.69;;;22.53;59.40
78671;BME280;68277;52.724;6.516;2023-09-30T13:02:23;102557.44;;;22.93;59.36
78671;BME280;68277;52.724;6.516;2023-09-30T13:04:49;102553.38;;;22.84;58.73